Terminal Aerodrome Forecast
Issued by NWS

Home | Current Version | Previous Version | Text Only | Print | Product List | Glossary On
Versions: 1 2 3 4 5 6 7 8 9 10 11 12 13 14
629
FTUS41 KPBZ 241720
TAFDUJ
TAF
KDUJ 241720Z 2418/2518 21010G17KT P6SM SKC
     FM250200 19006KT P6SM SKC WS020/22040KT
     FM251300 23009KT P6SM BKN080
     FM251400 23009KT P6SM VCSH BKN060=

USA.gov is the U.S. government's official web portal to all federal, state and local government web resources and services.